createdAt,value
2022-12-18T00:02:38.821Z,38.09
2022-12-18T00:07:42.341Z,38.36
2022-12-18T00:12:47.986Z,39.05
2022-12-18T00:17:52.677Z,37.94
2022-12-18T00:22:58.303Z,37.05
2022-12-18T00:28:03.852Z,36.80
2022-12-18T00:33:08.584Z,37.69
2022-12-18T00:38:14.366Z,37.53
2022-12-18T00:43:17.990Z,36.70
2022-12-18T00:48:22.682Z,36.77
2022-12-18T00:53:28.219Z,36.36
2022-12-18T00:58:33.955Z,36.54
2022-12-18T01:03:43.796Z,33.95
2022-12-18T01:08:47.262Z,33.90
2022-12-18T01:13:54.356Z,32.77
2022-12-18T01:19:02.650Z,33.96
2022-12-18T01:24:06.511Z,31.68
2022-12-18T01:29:13.074Z,32.64
2022-12-18T01:34:17.941Z,40.51
2022-12-18T01:39:21.614Z,34.78
2022-12-18T01:44:44.280Z,31.54
2022-12-18T01:49:49.188Z,29.95
2022-12-18T01:54:54.094Z,30.83
2022-12-18T02:00:02.992Z,32.06
2022-12-18T02:05:20.982Z,30.64
2022-12-18T02:10:30.427Z,33.12
2022-12-18T02:15:41.494Z,31.01
2022-12-18T02:20:50.762Z,30.15
2022-12-18T02:26:10.388Z,44.68
2022-12-18T02:31:16.889Z,32.33
2022-12-18T02:36:22.669Z,32.15
2022-12-18T02:41:30.821Z,29.54
2022-12-18T02:46:40.688Z,28.61
2022-12-18T02:51:53.687Z,27.30
2022-12-18T02:57:08.792Z,27.80
2022-12-18T03:02:22.068Z,28.23
2022-12-18T03:07:28.568Z,27.92
2022-12-18T03:12:39.976Z,28.92
2022-12-18T03:17:50.989Z,26.97
2022-12-18T03:22:59.563Z,27.88
2022-12-18T03:28:10.535Z,28.08
2022-12-18T03:33:18.813Z,25.24
2022-12-18T03:38:23.536Z,25.63
2022-12-18T03:43:39.098Z,25.09
2022-12-18T03:48:53.770Z,25.32
2022-12-18T03:54:00.614Z,25.78
2022-12-18T03:59:16.032Z,26.02
2022-12-18T04:04:21.320Z,24.79
2022-12-18T04:09:25.470Z,24.73
2022-12-18T04:14:31.361Z,24.93
2022-12-18T04:19:35.886Z,25.03
2022-12-18T04:24:40.519Z,24.16
2022-12-18T04:29:52.070Z,24.59
2022-12-18T04:34:58.382Z,24.18
2022-12-18T04:40:01.959Z,24.53
2022-12-18T04:45:18.495Z,23.74
2022-12-18T04:50:22.082Z,23.99
2022-12-18T04:55:26.958Z,25.40
2022-12-18T05:00:31.641Z,25.93
2022-12-18T05:05:36.484Z,26.82
2022-12-18T05:10:42.170Z,25.26
2022-12-18T05:15:53.158Z,26.78
2022-12-18T05:20:59.141Z,26.03
2022-12-18T05:26:06.511Z,26.75
2022-12-18T05:31:11.411Z,27.59
2022-12-18T05:36:14.761Z,27.68
2022-12-18T05:41:18.069Z,28.01
2022-12-18T05:46:27.796Z,26.12
2022-12-18T05:51:31.157Z,27.28
2022-12-18T05:56:34.471Z,28.28
2022-12-18T06:01:44.369Z,26.83
2022-12-18T06:06:49.821Z,25.77
2022-12-18T06:11:53.376Z,26.00
2022-12-18T06:16:58.069Z,27.03
2022-12-18T06:22:03.539Z,27.28
2022-12-18T06:27:09.094Z,27.26
2022-12-18T06:32:13.891Z,27.90
2022-12-18T06:37:19.446Z,29.74
2022-12-18T06:42:27.419Z,31.10
2022-12-18T06:47:32.078Z,31.37
2022-12-18T06:52:35.639Z,33.73
2022-12-18T06:57:39.600Z,31.88
2022-12-18T07:02:44.372Z,32.63
2022-12-18T07:07:47.975Z,33.48
2022-12-18T07:12:51.471Z,35.00
2022-12-18T07:17:56.129Z,35.66
2022-12-18T07:22:59.758Z,36.08
2022-12-18T07:28:03.091Z,37.13
2022-12-18T07:33:10.259Z,39.92
2022-12-18T07:38:13.690Z,40.03
2022-12-18T07:43:17.016Z,36.95
2022-12-18T07:48:23.366Z,36.74
2022-12-18T07:53:28.940Z,36.01
2022-12-18T07:58:34.770Z,33.64
2022-12-18T08:03:42.729Z,34.43
2022-12-18T08:08:49.286Z,35.70
2022-12-18T08:13:55.919Z,34.64
2022-12-18T08:19:00.621Z,34.85
2022-12-18T08:24:03.995Z,35.32
2022-12-18T08:29:08.766Z,36.57
2022-12-18T08:34:13.501Z,40.75
2022-12-18T08:39:16.923Z,40.74
2022-12-18T08:44:37.961Z,39.51
2022-12-18T08:49:42.628Z,38.35
2022-12-18T08:54:45.987Z,34.92
2022-12-18T08:59:49.434Z,34.37
2022-12-18T09:04:57.513Z,33.88
2022-12-18T09:10:01.184Z,35.20
2022-12-18T09:15:04.806Z,33.37
2022-12-18T09:20:10.210Z,31.87
2022-12-18T09:25:18.513Z,34.59
2022-12-18T09:30:22.047Z,37.06
2022-12-18T09:35:27.259Z,38.27
2022-12-18T09:40:35.836Z,38.21
2022-12-18T09:45:44.004Z,38.80
2022-12-18T09:50:50.504Z,38.11
2022-12-18T09:55:58.141Z,39.27
2022-12-18T10:01:03.961Z,39.38
2022-12-18T10:06:16.598Z,40.54
2022-12-18T10:11:29.738Z,41.43
2022-12-18T10:16:39.610Z,42.00
2022-12-18T10:21:50.285Z,44.98
2022-12-18T10:27:02.829Z,45.25
2022-12-18T10:32:06.181Z,44.32
2022-12-18T10:37:18.172Z,50.39
2022-12-18T10:42:21.705Z,46.31
2022-12-18T10:47:27.613Z,46.98
2022-12-18T10:52:40.812Z,45.15
2022-12-18T10:57:48.539Z,45.08
2022-12-18T11:02:54.206Z,46.24
2022-12-18T11:08:01.577Z,44.88
2022-12-18T11:13:18.070Z,45.03
2022-12-18T11:18:29.059Z,47.02
2022-12-18T11:23:34.083Z,45.73
2022-12-18T11:28:43.189Z,47.22
2022-12-18T11:34:19.834Z,47.57
2022-12-18T11:39:20.239Z,46.94
2022-12-18T11:44:31.993Z,44.68
2022-12-18T11:49:37.089Z,45.77
2022-12-18T11:54:41.825Z,45.08
2022-12-18T11:59:55.822Z,45.57
2022-12-18T12:05:17.639Z,46.29
2022-12-18T12:10:31.495Z,50.69
2022-12-18T12:15:48.148Z,48.37
2022-12-18T12:21:03.581Z,47.68
2022-12-18T12:26:13.848Z,48.48
2022-12-18T12:31:26.242Z,47.43
2022-12-18T12:36:37.311Z,49.10
2022-12-18T12:42:03.833Z,47.37
2022-12-18T12:47:14.687Z,50.24
2022-12-18T12:52:29.415Z,55.34
2022-12-18T12:57:37.299Z,49.62
2022-12-18T13:02:47.247Z,49.55
2022-12-18T13:07:56.073Z,49.16
2022-12-18T13:13:09.154Z,50.33
2022-12-18T13:18:19.062Z,48.68
2022-12-18T13:23:30.145Z,48.96
2022-12-18T13:28:53.544Z,48.17
2022-12-18T13:34:28.075Z,48.91
2022-12-18T13:39:36.767Z,48.96
2022-12-18T13:44:43.006Z,48.24
2022-12-18T13:49:46.464Z,49.05
2022-12-18T13:54:54.321Z,48.47
2022-12-18T14:00:01.188Z,48.35
2022-12-18T14:05:05.306Z,46.53
2022-12-18T14:15:44.613Z,44.85
2022-12-18T14:20:52.961Z,46.65
2022-12-18T14:26:00.783Z,46.48
2022-12-18T14:31:19.764Z,48.16
2022-12-18T14:36:24.783Z,48.75
2022-12-18T14:41:28.817Z,48.58
2022-12-18T14:46:37.746Z,52.40
2022-12-18T14:51:50.460Z,50.37
2022-12-18T14:56:59.941Z,46.47
2022-12-18T15:02:12.601Z,47.33
2022-12-18T15:07:20.811Z,45.78
2022-12-18T15:12:31.952Z,42.43
2022-12-18T15:17:39.140Z,43.72
2022-12-18T15:22:42.564Z,45.97
2022-12-18T15:27:49.377Z,45.88
2022-12-18T15:33:14.069Z,51.69
2022-12-18T15:38:23.555Z,47.86
2022-12-18T15:43:37.623Z,48.50
2022-12-18T15:48:42.642Z,48.21
2022-12-18T15:53:48.669Z,48.21
2022-12-18T15:58:52.060Z,44.71
2022-12-18T16:03:55.598Z,43.36
2022-12-18T16:09:07.914Z,49.14
2022-12-18T16:14:22.739Z,41.58
2022-12-18T16:19:27.750Z,43.25
2022-12-18T16:24:37.067Z,41.89
2022-12-18T16:29:41.079Z,47.73
2022-12-18T16:34:47.868Z,44.78
2022-12-18T16:39:52.663Z,40.05
2022-12-18T16:44:58.391Z,41.07
2022-12-18T16:50:04.590Z,40.99
2022-12-18T16:55:10.328Z,40.37
2022-12-18T17:00:17.458Z,45.19
2022-12-18T17:05:20.811Z,39.91
2022-12-18T17:10:25.675Z,39.34
2022-12-18T17:15:29.381Z,39.04
2022-12-18T17:20:33.193Z,41.24
2022-12-18T17:25:40.593Z,41.23
2022-12-18T17:30:44.059Z,47.35
2022-12-18T17:35:47.918Z,44.88
2022-12-18T17:40:55.591Z,41.97
2022-12-18T17:46:03.598Z,40.99
2022-12-18T17:51:08.895Z,42.78
2022-12-18T17:56:15.839Z,45.56
2022-12-18T18:01:21.627Z,43.93
2022-12-18T18:06:25.392Z,40.68
2022-12-18T18:11:47.911Z,45.54
2022-12-18T18:16:54.404Z,41.14
2022-12-18T18:22:01.694Z,40.51
2022-12-18T18:27:07.748Z,44.35
2022-12-18T18:32:11.144Z,43.17
2022-12-18T18:37:14.562Z,42.67
2022-12-18T18:42:19.385Z,41.83
2022-12-18T18:47:22.741Z,41.45
2022-12-18T18:52:26.134Z,42.64
2022-12-18T18:57:30.891Z,41.73
2022-12-18T19:02:37.154Z,38.55
2022-12-18T19:07:40.682Z,37.78
2022-12-18T19:13:02.818Z,38.30
2022-12-18T19:18:06.188Z,43.26
2022-12-18T19:23:09.771Z,36.14
2022-12-18T19:28:22.145Z,34.86
2022-12-18T19:33:42.190Z,34.98
2022-12-18T19:38:49.686Z,33.21
2022-12-18T19:43:56.843Z,34.34
2022-12-18T19:49:00.814Z,36.70
2022-12-18T19:54:06.855Z,36.11
2022-12-18T19:59:11.725Z,36.64
2022-12-18T20:04:15.171Z,34.14
2022-12-18T20:09:19.287Z,31.24
2022-12-18T20:14:27.572Z,30.46
2022-12-18T20:19:31.683Z,31.09
2022-12-18T20:24:37.185Z,31.36
2022-12-18T20:29:43.568Z,31.88
2022-12-18T20:34:47.049Z,33.84
2022-12-18T20:39:51.748Z,34.78
2022-12-18T20:45:01.194Z,32.89
2022-12-18T20:50:04.938Z,31.53
2022-12-18T20:55:09.264Z,29.92
2022-12-18T21:00:18.881Z,27.89
2022-12-18T21:05:23.389Z,27.20
2022-12-18T21:10:26.707Z,27.72
2022-12-18T21:15:31.797Z,28.52
2022-12-18T21:20:35.142Z,28.80
2022-12-18T21:25:38.649Z,27.87
2022-12-18T21:30:45.495Z,25.84
2022-12-18T21:35:51.362Z,27.41
2022-12-18T21:40:54.689Z,27.02
2022-12-18T21:46:02.154Z,27.93
2022-12-18T21:51:08.152Z,31.74
2022-12-18T21:56:11.565Z,32.23
2022-12-18T22:01:16.902Z,33.34
2022-12-18T22:06:23.330Z,33.74
2022-12-18T22:11:26.837Z,34.12
2022-12-18T22:16:31.724Z,35.99
2022-12-18T22:21:36.820Z,33.04
2022-12-18T22:26:40.583Z,34.66
2022-12-18T22:31:45.844Z,33.19
2022-12-18T22:36:50.404Z,34.10
2022-12-18T22:41:53.743Z,34.51
2022-12-18T22:47:06.881Z,33.97
2022-12-18T22:52:13.136Z,33.72
2022-12-18T22:57:20.301Z,31.01
2022-12-18T23:02:27.347Z,31.27
2022-12-18T23:07:31.425Z,28.67
2022-12-18T23:12:37.826Z,29.57
2022-12-18T23:17:43.509Z,29.75
2022-12-18T23:22:46.834Z,29.75
2022-12-18T23:27:50.434Z,28.44
2022-12-18T23:32:57.468Z,26.59
2022-12-18T23:38:01.008Z,26.46
2022-12-18T23:43:04.540Z,25.93
2022-12-18T23:48:09.240Z,26.64
2022-12-18T23:53:12.708Z,27.55
2022-12-18T23:58:18.126Z,28.32
